createdAt,value
2018-07-22T00:01:50.667Z,94484.06
2018-07-22T00:04:19.399Z,94480.11
2018-07-22T00:06:48.046Z,94478.70
2018-07-22T00:09:16.842Z,94477.58
2018-07-22T00:11:45.546Z,94472.46
2018-07-22T00:14:14.520Z,94477.00
2018-07-22T00:16:43.408Z,94471.67
2018-07-22T00:19:12.263Z,94471.30
2018-07-22T00:21:40.931Z,94467.63
2018-07-22T00:24:09.657Z,94465.14
2018-07-22T00:26:38.309Z,94469.38
2018-07-22T00:29:06.998Z,94466.27
2018-07-22T00:31:35.759Z,94467.34
2018-07-22T00:34:04.491Z,94463.80
2018-07-22T00:36:33.183Z,94464.42
2018-07-22T00:39:01.879Z,94469.16
2018-07-22T00:41:30.984Z,94471.43
2018-07-22T00:43:59.673Z,94478.61
2018-07-22T00:46:28.343Z,94474.36
2018-07-22T00:48:57.071Z,94476.50
2018-07-22T00:51:25.720Z,94463.16
2018-07-22T00:53:54.398Z,94462.53
2018-07-22T00:56:23.076Z,94466.59
2018-07-22T00:58:51.728Z,94469.75
2018-07-22T01:01:20.683Z,94464.77
2018-07-22T01:03:49.755Z,94464.77
2018-07-22T01:06:18.425Z,94457.25
2018-07-22T01:08:47.076Z,94455.97
2018-07-22T01:11:15.771Z,94463.00
2018-07-22T01:13:44.546Z,94471.83
2018-07-22T01:16:13.327Z,94468.92
2018-07-22T01:18:41.982Z,94476.30
2018-07-22T01:21:10.706Z,94469.44
2018-07-22T01:23:39.417Z,94469.44
2018-07-22T01:26:08.162Z,94468.91
2018-07-22T01:28:36.820Z,94464.70
2018-07-22T01:31:05.474Z,94469.63
2018-07-22T01:33:34.172Z,94466.80
2018-07-22T01:36:02.827Z,94463.70
2018-07-22T01:38:31.489Z,94458.03
2018-07-22T01:41:00.187Z,94462.95
2018-07-22T01:43:28.912Z,94465.20
2018-07-22T01:45:57.622Z,94458.16
2018-07-22T01:48:26.265Z,94461.88
2018-07-22T01:50:54.936Z,94462.84
2018-07-22T01:53:23.660Z,94461.02
2018-07-22T01:55:52.321Z,94457.75
2018-07-22T01:58:20.960Z,94449.88
2018-07-22T02:00:49.689Z,94452.03
2018-07-22T02:03:18.346Z,94446.42
2018-07-22T02:05:47.041Z,94444.78
2018-07-22T02:08:15.755Z,94441.62
2018-07-22T02:10:44.406Z,94443.95
2018-07-22T02:13:13.134Z,94446.53
2018-07-22T02:15:41.829Z,94443.25
2018-07-22T02:18:10.494Z,94441.64
2018-07-22T02:20:39.155Z,94441.77
2018-07-22T02:23:07.892Z,94441.33
2018-07-22T02:25:36.565Z,94440.91
2018-07-22T02:28:05.315Z,94454.98
2018-07-22T02:30:34.062Z,94450.48
2018-07-22T02:33:02.731Z,94446.53
2018-07-22T02:35:31.425Z,94444.19
2018-07-22T02:38:01.324Z,94447.03
2018-07-22T02:40:30.019Z,94444.63
2018-07-22T02:42:58.686Z,94436.30
2018-07-22T02:45:27.411Z,94443.20
2018-07-22T02:47:56.100Z,94438.22
2018-07-22T02:50:24.927Z,94440.97
2018-07-22T02:52:53.579Z,94449.05
2018-07-22T02:55:22.303Z,94445.76
2018-07-22T02:57:50.984Z,94439.91
2018-07-22T03:00:19.694Z,94441.22
2018-07-22T03:02:48.464Z,94443.47
2018-07-22T03:05:17.102Z,94445.34
2018-07-22T03:07:45.779Z,94446.36
2018-07-22T03:10:14.443Z,94453.28
2018-07-22T03:12:43.166Z,94454.26
2018-07-22T03:15:11.871Z,94445.63
2018-07-22T03:17:40.526Z,94445.93
2018-07-22T03:20:09.750Z,94444.91
2018-07-22T03:22:38.402Z,94448.50
2018-07-22T03:25:07.197Z,94444.55
2018-07-22T03:27:35.878Z,94442.77
2018-07-22T03:30:06.427Z,94440.27
2018-07-22T03:32:35.164Z,94446.41
2018-07-22T03:35:03.910Z,94436.73
2018-07-22T03:37:32.632Z,94433.30
2018-07-22T03:40:01.361Z,94428.66
2018-07-22T03:42:30.150Z,94428.78
2018-07-22T03:44:58.837Z,94429.19
2018-07-22T03:47:27.597Z,94432.23
2018-07-22T03:49:56.208Z,94432.46
2018-07-22T03:52:24.990Z,94423.80
2018-07-22T03:54:53.761Z,94415.49
2018-07-22T03:57:22.398Z,94423.19
2018-07-22T03:59:51.022Z,94426.61
2018-07-22T04:02:19.743Z,94429.89
2018-07-22T04:04:48.418Z,94432.29
2018-07-22T04:07:17.091Z,94433.14
2018-07-22T04:09:45.891Z,94433.25
2018-07-22T04:12:14.534Z,94438.02
2018-07-22T04:14:43.240Z,94435.69
2018-07-22T04:17:12.200Z,94436.53
2018-07-22T04:19:40.900Z,94429.95
2018-07-22T04:22:09.556Z,94431.41
2018-07-22T04:24:38.239Z,94425.55
2018-07-22T04:27:07.034Z,94441.70
2018-07-22T04:29:35.696Z,94437.81
2018-07-22T04:32:04.418Z,94436.55
2018-07-22T04:34:33.159Z,94428.09
2018-07-22T04:37:01.853Z,94424.15
2018-07-22T04:39:30.544Z,94427.57
2018-07-22T04:41:59.261Z,94420.31
2018-07-22T04:44:27.950Z,94423.55
2018-07-22T04:46:56.610Z,94416.05
2018-07-22T04:49:25.549Z,94416.39
2018-07-22T04:51:54.208Z,94414.80
2018-07-22T04:54:22.906Z,94407.55
2018-07-22T04:56:51.556Z,94414.13
2018-07-22T04:59:20.530Z,94413.70
2018-07-22T05:01:49.215Z,94414.28
2018-07-22T05:04:17.874Z,94411.56
2018-07-22T05:06:46.582Z,94422.05
2018-07-22T05:09:15.275Z,94413.50
2018-07-22T05:11:43.990Z,94409.64
2018-07-22T05:14:12.671Z,94416.70
2018-07-22T05:16:41.348Z,94418.50
2018-07-22T05:19:10.118Z,94419.14
2018-07-22T05:21:38.771Z,94420.39
2018-07-22T05:24:07.449Z,94421.06
2018-07-22T05:26:36.147Z,94427.88
2018-07-22T05:29:04.930Z,94421.19
2018-07-22T05:31:33.635Z,94426.85
2018-07-22T05:34:02.307Z,94425.61
2018-07-22T05:36:31.002Z,94423.18
2018-07-22T05:38:59.713Z,94426.43
2018-07-22T05:41:28.531Z,94419.08
2018-07-22T05:43:57.205Z,94420.70
2018-07-22T05:46:25.891Z,94420.67
2018-07-22T05:48:54.621Z,94419.83
2018-07-22T05:51:23.309Z,94418.37
2018-07-22T10:10:53.679Z,94227.84
2018-07-22T10:13:22.351Z,94226.30
2018-07-22T10:15:51.103Z,94224.52
2018-07-22T10:18:19.795Z,94230.00
2018-07-22T10:20:49.483Z,94219.58
2018-07-22T10:23:18.233Z,94213.16
2018-07-22T10:25:49.329Z,94208.41
2018-07-22T10:28:22.053Z,94210.33
2018-07-22T10:30:50.793Z,94210.61
2018-07-22T10:33:19.571Z,94205.97
2018-07-22T10:35:48.228Z,94206.38
2018-07-22T10:38:16.910Z,94199.94
2018-07-22T10:40:45.650Z,94194.95
2018-07-22T10:43:14.323Z,94190.61
2018-07-22T10:45:43.027Z,94185.40
2018-07-22T10:48:11.722Z,94181.13
2018-07-22T10:50:40.379Z,94183.22
2018-07-22T10:53:09.038Z,94181.21
2018-07-22T10:55:37.736Z,94176.41
2018-07-22T10:58:06.530Z,94173.37
2018-07-22T11:00:35.981Z,94166.54
2018-07-22T11:03:06.494Z,94171.13
2018-07-22T11:05:35.300Z,94168.34
2018-07-22T11:08:04.062Z,94163.04
2018-07-22T11:10:32.743Z,94162.41
2018-07-22T11:13:01.455Z,94162.13
2018-07-22T11:15:30.146Z,94157.66
2018-07-22T11:17:58.790Z,94158.93
2018-07-22T11:20:27.641Z,94150.19
2018-07-22T11:22:56.322Z,94150.98
2018-07-22T11:25:24.979Z,94148.08
2018-07-22T11:27:53.802Z,94142.33
2018-07-22T11:30:22.934Z,94139.37
2018-07-22T11:32:52.609Z,94142.64
2018-07-22T11:35:21.246Z,94141.63
2018-07-22T11:37:50.214Z,94140.52
2018-07-22T11:40:18.873Z,94134.75
2018-07-22T11:42:47.553Z,94124.59
2018-07-22T11:45:16.271Z,94116.69
2018-07-22T11:47:44.950Z,94111.66
2018-07-22T11:50:13.674Z,94112.65
2018-07-22T11:52:42.546Z,94111.11
2018-07-22T11:55:11.341Z,94109.27
2018-07-22T11:57:40.019Z,94098.42
2018-07-22T12:00:08.841Z,94097.34
2018-07-22T12:02:37.539Z,94089.96
2018-07-22T12:05:06.318Z,94098.45
2018-07-22T12:07:39.932Z,94094.32
2018-07-22T12:10:11.584Z,94100.02
2018-07-22T12:12:40.270Z,94094.02
2018-07-22T12:15:09.805Z,94083.05
2018-07-22T12:17:39.637Z,94084.42
2018-07-22T12:20:08.376Z,94074.03
2018-07-22T12:22:37.291Z,94074.84
2018-07-22T12:25:06.061Z,94066.84
2018-07-22T12:27:36.703Z,94069.09
2018-07-22T12:30:09.592Z,94064.02
2018-07-22T12:32:39.592Z,94064.60
2018-07-22T12:35:08.275Z,94061.32
2018-07-22T12:37:36.994Z,94050.38
2018-07-22T12:40:05.995Z,94050.89
2018-07-22T12:42:34.700Z,94036.85
2018-07-22T12:45:03.507Z,94027.67
2018-07-22T12:47:32.179Z,94025.93
2018-07-22T12:50:00.887Z,94022.30
2018-07-22T12:52:29.583Z,94016.68
2018-07-22T12:54:58.327Z,94026.00
2018-07-22T12:57:27.079Z,94026.23
2018-07-22T12:59:55.763Z,94030.59
2018-07-22T13:02:24.486Z,94031.45
2018-07-22T13:04:53.156Z,94024.47
2018-07-22T13:07:21.811Z,94029.74
2018-07-22T13:09:50.633Z,94036.12
2018-07-22T13:12:19.303Z,94058.40
2018-07-22T13:14:47.963Z,94074.90
2018-07-22T13:17:17.321Z,94078.59
2018-07-22T13:19:45.968Z,94083.74
2018-07-22T13:22:14.646Z,94083.16
2018-07-22T13:24:43.354Z,94088.33
2018-07-22T13:27:12.134Z,94101.95
2018-07-22T13:29:40.832Z,94092.94
2018-07-22T13:32:09.938Z,94073.91
2018-07-22T13:34:39.014Z,94070.88
2018-07-22T13:37:08.066Z,94071.12
2018-07-22T13:39:36.692Z,94067.80
2018-07-22T13:42:06.166Z,94060.42
2018-07-22T13:44:37.031Z,94063.44
2018-07-22T13:47:07.064Z,94046.69
2018-07-22T13:49:36.541Z,94041.27
2018-07-22T13:52:07.283Z,94047.22
2018-07-22T13:54:36.819Z,94038.90
2018-07-22T13:57:06.351Z,94038.48
2018-07-22T13:59:36.483Z,94041.81
2018-07-22T14:02:06.292Z,94034.45
2018-07-22T14:04:36.995Z,94020.97
2018-07-22T14:07:05.661Z,94013.62
2018-07-22T14:09:34.283Z,94007.86
2018-07-22T14:12:02.963Z,94004.66
2018-07-22T14:14:31.655Z,93987.77
2018-07-22T14:17:00.613Z,93994.39
2018-07-22T14:19:29.302Z,93995.43
2018-07-22T14:21:57.983Z,93988.47
2018-07-22T14:24:26.696Z,93993.72
2018-07-22T14:26:55.357Z,93989.09
2018-07-22T14:29:24.062Z,93983.66
2018-07-22T14:31:52.763Z,93988.25
2018-07-22T14:34:21.487Z,93989.20
2018-07-22T14:36:50.169Z,93988.15
2018-07-22T14:39:19.247Z,93995.40
2018-07-22T14:41:47.910Z,93996.58
2018-07-22T14:44:17.178Z,93994.50
2018-07-22T14:46:46.426Z,93990.50
2018-07-22T14:49:15.840Z,93987.70
2018-07-22T14:51:45.258Z,93992.43
2018-07-22T14:54:14.814Z,93989.42
2018-07-22T14:56:44.292Z,93994.93
2018-07-22T14:59:13.555Z,93987.68
2018-07-22T15:01:42.810Z,93989.47
2018-07-22T15:04:12.227Z,93991.05
2018-07-22T15:06:41.489Z,93989.10
2018-07-22T15:09:10.759Z,93991.19
2018-07-22T15:11:39.916Z,93989.95
2018-07-22T15:14:08.967Z,93982.66
2018-07-22T15:16:37.651Z,93982.97
2018-07-22T15:19:07.036Z,93974.48
2018-07-22T15:21:36.190Z,93976.06
2018-07-22T15:24:05.510Z,93962.00
2018-07-22T15:26:34.152Z,93964.55
2018-07-22T15:29:02.828Z,93960.70
2018-07-22T15:31:31.495Z,93964.61
2018-07-22T15:34:00.154Z,93959.56
2018-07-22T15:36:28.857Z,93964.03
2018-07-22T15:38:57.544Z,93963.23
2018-07-22T15:41:26.194Z,93962.63
2018-07-22T15:43:55.425Z,93967.59
2018-07-22T15:46:24.086Z,93959.94
2018-07-22T15:48:52.907Z,93956.23
2018-07-22T15:51:21.591Z,93960.02
2018-07-22T15:53:50.291Z,93963.18
2018-07-22T15:56:18.940Z,93961.00
2018-07-22T15:58:48.473Z,93958.59
2018-07-22T16:01:17.295Z,93963.05
2018-07-22T16:03:46.037Z,93961.52
2018-07-22T16:06:14.853Z,93965.95
2018-07-22T16:08:43.523Z,93968.78
2018-07-22T16:11:12.261Z,93977.31
2018-07-22T16:13:41.201Z,93976.24
2018-07-22T16:16:09.879Z,93978.84
2018-07-22T16:18:42.239Z,93967.21
2018-07-22T16:21:10.945Z,93969.53
2018-07-22T16:23:39.795Z,93969.30
2018-07-22T16:26:08.910Z,93965.31
2018-07-22T16:28:37.577Z,93968.78
2018-07-22T16:31:07.072Z,93970.95
2018-07-22T16:33:35.974Z,93967.39
2018-07-22T16:36:04.660Z,93965.98
2018-07-22T16:38:33.357Z,93961.80
2018-07-22T16:41:02.085Z,93966.94
2018-07-22T16:43:30.810Z,93971.45
2018-07-22T16:45:59.558Z,93972.97
2018-07-22T16:48:28.237Z,93960.13
2018-07-22T16:50:56.960Z,93965.30
2018-07-22T16:53:25.680Z,93966.30
2018-07-22T16:55:54.329Z,93975.84
2018-07-22T16:58:23.009Z,93973.27
2018-07-22T17:00:51.811Z,93964.67
2018-07-22T17:03:21.372Z,93957.36
2018-07-22T17:05:50.125Z,93956.54
2018-07-22T17:08:19.318Z,93961.88
2018-07-22T17:10:48.182Z,93961.30
2018-07-22T17:13:16.878Z,93968.38
2018-07-22T17:15:45.583Z,93966.63
2018-07-22T17:18:14.258Z,93971.46
2018-07-22T17:20:43.079Z,93972.22
2018-07-22T17:23:11.891Z,93977.80
2018-07-22T17:25:40.551Z,93978.13
2018-07-22T17:28:09.285Z,93975.30
2018-07-22T17:30:38.022Z,93982.34
2018-07-22T17:33:07.084Z,93987.28
2018-07-22T17:35:35.924Z,93983.33
2018-07-22T17:38:04.683Z,93980.45
2018-07-22T17:44:02.690Z,93989.38
2018-07-22T17:46:31.444Z,93989.27
2018-07-22T17:49:00.122Z,93986.20
2018-07-22T17:51:28.805Z,93990.19
2018-07-22T17:53:57.468Z,93997.13
2018-07-22T17:56:26.280Z,93990.77
2018-07-22T17:58:54.961Z,93991.88
2018-07-22T18:01:23.746Z,93991.96
2018-07-22T18:03:52.454Z,93990.41
2018-07-22T18:06:21.227Z,93979.64
2018-07-22T18:08:49.922Z,93977.16
2018-07-22T18:11:18.605Z,93979.55
2018-07-22T18:13:47.386Z,93979.11
2018-07-22T18:16:16.561Z,93976.30
2018-07-22T18:18:45.384Z,93976.93
2018-07-22T18:21:14.118Z,93984.41
2018-07-22T18:23:42.805Z,93992.22
2018-07-22T18:26:11.502Z,93997.91
2018-07-22T18:28:40.236Z,94000.13
2018-07-22T18:31:08.946Z,94004.34
2018-07-22T18:33:37.721Z,94008.66
2018-07-22T18:36:06.542Z,94011.30
2018-07-22T18:38:35.255Z,94012.86
2018-07-22T18:41:04.003Z,94014.45
2018-07-22T18:43:32.734Z,94017.02
2018-07-22T18:46:01.525Z,94016.59
2018-07-22T18:48:30.475Z,94018.70
2018-07-22T18:50:59.215Z,94022.79
2018-07-22T18:53:27.931Z,94022.09
2018-07-22T18:55:56.806Z,94040.23
2018-07-22T18:58:25.550Z,94048.83
2018-07-22T19:00:55.129Z,94053.84
2018-07-22T19:03:23.824Z,94055.14
2018-07-22T19:05:52.547Z,94057.66
2018-07-22T19:08:21.300Z,94054.30
2018-07-22T19:10:50.033Z,94048.22
2018-07-22T19:13:18.729Z,94051.13
2018-07-22T19:15:47.420Z,94044.70
2018-07-22T19:18:16.095Z,94052.72
2018-07-22T19:20:44.756Z,94050.75
2018-07-22T19:23:13.476Z,94050.02
2018-07-22T19:25:42.331Z,94056.97
2018-07-22T19:28:11.422Z,94057.50
2018-07-22T19:30:40.187Z,94052.48
2018-07-22T19:33:09.262Z,94061.30
2018-07-22T19:35:44.129Z,94062.63
2018-07-22T19:38:13.534Z,94061.34
2018-07-22T19:40:42.587Z,94058.20
2018-07-22T19:43:11.327Z,94057.16
2018-07-22T19:45:40.075Z,94058.84
2018-07-22T19:48:08.969Z,94057.36
2018-07-22T19:50:37.695Z,94049.44
2018-07-22T19:53:06.404Z,94052.38
2018-07-22T19:55:35.101Z,94048.70
2018-07-22T19:58:03.904Z,94041.30
2018-07-22T20:00:32.736Z,94041.54
2018-07-22T20:03:01.537Z,94039.43
2018-07-22T20:05:30.261Z,94041.01
2018-07-22T20:07:59.173Z,94028.80
2018-07-22T20:10:27.860Z,94025.34
2018-07-22T20:12:56.563Z,94017.62
2018-07-22T20:15:25.235Z,94016.24
2018-07-22T20:17:53.967Z,94021.24
2018-07-22T20:20:22.709Z,94025.80
2018-07-22T20:22:51.547Z,94032.45
2018-07-22T20:25:20.286Z,94033.27
2018-07-22T20:27:49.063Z,94040.47
2018-07-22T20:30:17.892Z,94042.84
2018-07-22T20:32:46.574Z,94042.30
2018-07-22T20:35:15.290Z,94035.94
2018-07-22T20:37:44.074Z,94044.44
2018-07-22T20:40:12.887Z,94048.69
2018-07-22T20:42:41.595Z,94042.05
2018-07-22T20:45:11.232Z,94040.75
2018-07-22T20:47:39.903Z,94051.64
2018-07-22T20:50:08.580Z,94059.32
2018-07-22T20:52:37.370Z,94062.52
2018-07-22T20:55:06.762Z,94069.15
2018-07-22T20:57:35.544Z,94067.00
2018-07-22T21:00:05.921Z,94065.41
2018-07-22T21:02:34.793Z,94058.54
2018-07-22T21:05:04.036Z,94054.80
2018-07-22T21:07:32.816Z,94061.98
2018-07-22T21:10:01.513Z,94068.34
2018-07-22T21:12:43.690Z,94066.73
2018-07-22T21:15:12.847Z,94074.97
2018-07-22T21:17:41.706Z,94087.44
2018-07-22T21:20:10.363Z,94084.24
2018-07-22T21:22:39.465Z,94085.53
2018-07-22T21:25:08.210Z,94087.16
2018-07-22T21:27:36.950Z,94089.78
2018-07-22T21:30:07.776Z,94095.31
2018-07-22T21:32:36.467Z,94095.80
2018-07-22T21:35:05.512Z,94100.02
2018-07-22T21:37:34.382Z,94102.44
2018-07-22T21:40:03.152Z,94095.83
2018-07-22T21:42:32.774Z,94112.81
2018-07-22T21:45:01.778Z,94115.73
2018-07-22T21:47:30.559Z,94123.42
2018-07-22T21:49:59.299Z,94128.38
2018-07-22T21:52:27.963Z,94120.84
2018-07-22T21:54:56.675Z,94123.63
2018-07-22T21:57:25.555Z,94124.64
2018-07-22T21:59:54.188Z,94126.27
2018-07-22T22:02:27.139Z,94124.14
2018-07-22T22:04:56.247Z,94115.15
2018-07-22T22:07:25.077Z,94123.11
2018-07-22T22:09:54.228Z,94121.98
2018-07-22T22:12:23.622Z,94111.36
2018-07-22T22:14:52.316Z,94123.58
2018-07-22T22:17:21.012Z,94128.59
2018-07-22T22:19:49.702Z,94129.80
2018-07-22T22:22:18.351Z,94138.35
2018-07-22T22:24:47.903Z,94141.52
2018-07-22T22:27:16.648Z,94133.34
2018-07-22T22:29:45.339Z,94142.95
2018-07-22T22:32:14.048Z,94140.34
2018-07-22T22:34:42.720Z,94131.97
2018-07-22T22:37:11.419Z,94131.36
2018-07-22T22:39:40.133Z,94130.31
2018-07-22T22:42:09.286Z,94130.56
2018-07-22T22:44:37.972Z,94126.85
2018-07-22T22:47:06.659Z,94124.19
2018-07-22T22:49:35.347Z,94114.35
2018-07-22T22:52:04.076Z,94109.80
2018-07-22T22:54:33.874Z,94114.27
2018-07-22T22:57:02.538Z,94112.13
2018-07-22T22:59:31.195Z,94109.47
2018-07-22T23:01:59.932Z,94107.91
2018-07-22T23:04:28.581Z,94103.69
2018-07-22T23:06:57.390Z,94110.26
2018-07-22T23:09:26.070Z,94110.46
2018-07-22T23:11:55.035Z,94112.03
2018-07-22T23:14:23.691Z,94102.98
2018-07-22T23:16:52.464Z,94099.51
2018-07-22T23:19:21.143Z,94097.14
2018-07-22T23:21:49.800Z,94093.98
2018-07-22T23:24:18.525Z,94088.41
2018-07-22T23:26:47.217Z,94084.94
2018-07-22T23:29:15.935Z,94081.79
2018-07-22T23:31:44.651Z,94079.41
2018-07-22T23:34:13.309Z,94080.99
2018-07-22T23:36:42.020Z,94085.53
2018-07-22T23:39:10.841Z,94084.14
2018-07-22T23:41:39.551Z,94082.02
2018-07-22T23:44:08.466Z,94089.66
2018-07-22T23:46:37.152Z,94084.02
2018-07-22T23:49:06.016Z,94079.47
2018-07-22T23:51:34.737Z,94079.77
2018-07-22T23:54:03.423Z,94080.05
2018-07-22T23:56:32.108Z,94072.62
2018-07-22T23:59:00.818Z,94068.66
